createdAt,value
2017-09-25T00:00:21.308Z,20.74
2017-09-25T00:02:48.618Z,20.74
2017-09-25T00:05:15.891Z,20.74
2017-09-25T00:07:43.196Z,20.73
2017-09-25T00:10:10.470Z,20.72
2017-09-25T00:12:37.765Z,20.72
2017-09-25T00:15:05.074Z,20.72
2017-09-25T00:17:32.334Z,20.71
2017-09-25T00:19:59.603Z,20.70
2017-09-25T00:22:26.826Z,20.69
2017-09-25T00:24:54.097Z,20.70
2017-09-25T00:27:23.950Z,20.69
2017-09-25T00:35:57.212Z,20.67
2017-09-25T00:38:24.564Z,20.67
2017-09-25T00:40:51.838Z,20.66
2017-09-25T00:43:19.375Z,20.66
2017-09-25T00:45:46.637Z,20.66
2017-09-25T00:48:20.125Z,20.66
2017-09-25T00:50:51.454Z,20.65
2017-09-25T00:53:23.534Z,20.64
2017-09-25T00:58:25.109Z,20.64
2017-09-25T01:00:54.669Z,20.64
2017-09-25T01:03:22.560Z,20.67
2017-09-25T01:05:50.010Z,20.80
2017-09-25T01:08:17.824Z,20.85
2017-09-25T01:10:46.159Z,20.84
2017-09-25T01:13:17.383Z,20.86
2017-09-25T01:15:44.666Z,20.83
2017-09-25T01:18:12.074Z,20.78
2017-09-25T01:20:39.418Z,20.73
2017-09-25T01:23:06.725Z,20.72
2017-09-25T01:25:34.018Z,20.64
2017-09-25T01:28:01.303Z,20.65
2017-09-25T01:30:28.615Z,20.59
2017-09-25T01:32:55.915Z,20.59
2017-09-25T01:35:23.204Z,20.60
2017-09-25T01:37:50.448Z,20.56
2017-09-25T01:40:17.867Z,20.53
2017-09-25T01:42:45.220Z,20.54
2017-09-25T01:45:12.467Z,20.51
2017-09-25T01:47:39.740Z,20.51
2017-09-25T01:50:07.060Z,20.54
2017-09-25T01:52:34.475Z,20.49
2017-09-25T01:55:01.837Z,20.49
2017-09-25T01:57:29.155Z,20.48
2017-09-25T01:59:56.444Z,20.46
2017-09-25T02:02:23.706Z,20.47
2017-09-25T02:04:50.946Z,20.47
2017-09-25T02:07:18.485Z,20.47
2017-09-25T02:09:45.730Z,20.47
2017-09-25T02:12:12.998Z,20.46
2017-09-25T02:14:40.357Z,20.47
2017-09-25T02:17:07.674Z,20.46
2017-09-25T02:19:35.178Z,20.44
2017-09-25T02:22:02.523Z,20.45
2017-09-25T02:24:29.825Z,20.43
2017-09-25T02:27:00.522Z,20.42
2017-09-25T02:29:27.823Z,20.44
2017-09-25T02:31:55.307Z,20.44
2017-09-25T02:34:22.590Z,20.41
2017-09-25T02:36:49.850Z,20.44
2017-09-25T02:39:17.075Z,20.41
2017-09-25T02:41:44.314Z,20.38
2017-09-25T02:44:11.733Z,20.41
2017-09-25T02:46:44.643Z,20.37
2017-09-25T02:52:08.657Z,20.35
2017-09-25T02:54:36.019Z,20.35
2017-09-25T02:57:03.307Z,20.35
2017-09-25T02:59:30.787Z,20.35
2017-09-25T03:01:57.984Z,20.32
2017-09-25T03:04:25.342Z,20.32
2017-09-25T03:06:52.646Z,20.32
2017-09-25T03:09:20.165Z,20.35
2017-09-25T03:11:47.461Z,20.36
2017-09-25T03:14:14.968Z,20.37
2017-09-25T03:16:50.205Z,20.38
2017-09-25T03:19:17.443Z,20.34
2017-09-25T03:21:44.686Z,20.33
2017-09-25T03:24:13.891Z,20.34
2017-09-25T03:26:41.264Z,20.32
2017-09-25T03:29:11.518Z,20.30
2017-09-25T03:31:41.676Z,20.30
2017-09-25T03:34:08.948Z,20.31
2017-09-25T03:36:36.223Z,20.31
2017-09-25T03:39:03.532Z,20.29
2017-09-25T03:41:30.790Z,20.29
2017-09-25T03:43:58.032Z,20.31
2017-09-25T03:46:25.818Z,20.35
2017-09-25T03:48:54.531Z,20.33
2017-09-25T03:51:22.795Z,20.32
2017-09-25T03:53:51.081Z,20.31
2017-09-25T03:56:18.530Z,20.34
2017-09-25T03:58:46.230Z,20.38
2017-09-25T04:01:13.532Z,20.43
2017-09-25T04:03:40.926Z,20.46
2017-09-25T04:06:08.187Z,20.48
2017-09-25T04:08:35.586Z,20.52
2017-09-25T04:11:02.928Z,20.58
2017-09-25T04:13:30.178Z,20.61
2017-09-25T04:15:57.596Z,20.61
2017-09-25T04:18:24.949Z,20.63
2017-09-25T04:20:52.259Z,20.65
2017-09-25T04:23:19.761Z,20.67
2017-09-25T04:25:47.188Z,20.69
2017-09-25T04:28:14.777Z,20.71
2017-09-25T04:30:42.242Z,20.73
2017-09-25T04:33:09.528Z,20.76
2017-09-25T04:35:36.888Z,20.79
2017-09-25T04:38:04.156Z,20.81
2017-09-25T04:40:31.682Z,20.83
2017-09-25T04:42:59.160Z,20.86
2017-09-25T04:45:26.429Z,20.86
2017-09-25T04:47:53.705Z,20.88
2017-09-25T04:50:20.960Z,20.89
2017-09-25T04:52:49.779Z,20.90
2017-09-25T04:55:18.104Z,20.93
2017-09-25T04:57:45.702Z,20.95
2017-09-25T05:00:15.113Z,20.98
2017-09-25T05:02:42.422Z,21.00
2017-09-25T05:05:09.846Z,21.02
2017-09-25T05:07:38.444Z,21.04
2017-09-25T05:10:06.216Z,21.04
2017-09-25T05:12:35.592Z,21.06
2017-09-25T05:15:03.719Z,21.08
2017-09-25T05:17:31.312Z,21.08
2017-09-25T05:20:00.451Z,21.10
2017-09-25T05:22:28.030Z,21.11
2017-09-25T05:24:57.311Z,21.13
2017-09-25T05:29:56.930Z,21.18
2017-09-25T05:32:24.238Z,21.20
2017-09-25T05:52:38.477Z,21.54
2017-09-25T05:55:05.909Z,21.57
2017-09-25T05:57:33.413Z,21.60
2017-09-25T06:02:33.416Z,21.74
2017-09-25T06:07:33.184Z,21.74
2017-09-25T06:10:02.523Z,21.77
2017-09-25T06:25:51.981Z,22.00
2017-09-25T06:52:30.411Z,22.33
2017-09-25T07:16:05.267Z,22.41
2017-09-25T07:18:33.339Z,22.21
2017-09-25T07:31:16.170Z,22.29
2017-09-25T07:36:18.384Z,22.34
2017-09-25T07:50:10.878Z,22.37
2017-09-25T08:10:11.341Z,22.76
2017-09-25T08:12:38.854Z,22.79
2017-09-25T08:20:20.559Z,22.91
2017-09-25T08:25:24.597Z,22.99
2017-09-25T08:28:16.720Z,22.99
2017-09-25T08:30:47.292Z,23.02
2017-09-25T09:04:03.041Z,23.31
2017-09-25T09:06:32.507Z,23.32
2017-09-25T09:09:00.550Z,23.37
2017-09-25T09:11:28.016Z,23.38
2017-09-25T09:13:57.631Z,23.36
2017-09-25T09:17:24.065Z,23.38
2017-09-25T09:19:51.557Z,23.36
2017-09-25T09:32:26.185Z,23.39
2017-09-25T09:34:57.595Z,23.39
2017-09-25T09:37:27.145Z,23.39
2017-09-25T09:39:55.218Z,23.39
2017-09-25T09:42:22.531Z,23.44
2017-09-25T09:44:50.938Z,23.44
2017-09-25T09:47:18.294Z,23.42
2017-09-25T09:49:45.561Z,23.43
2017-09-25T09:52:12.847Z,23.43
2017-09-25T09:54:40.205Z,23.44
2017-09-25T09:57:07.613Z,23.45
2017-09-25T09:59:34.866Z,23.45
2017-09-25T10:02:02.215Z,23.49
2017-09-25T10:04:29.750Z,23.52
2017-09-25T10:06:57.395Z,23.55
2017-09-25T10:09:26.608Z,23.57
2017-09-25T10:17:20.564Z,23.64
2017-09-25T10:19:50.462Z,23.64
2017-09-25T10:22:21.093Z,23.67
2017-09-25T10:24:49.831Z,23.68
2017-09-25T10:32:28.233Z,23.78
2017-09-25T10:34:55.768Z,23.79
2017-09-25T10:40:02.229Z,23.81
2017-09-25T10:42:30.907Z,23.83
2017-09-25T10:44:58.342Z,23.89
2017-09-25T10:47:29.887Z,23.93
2017-09-25T10:55:04.632Z,23.98
2017-09-25T10:57:32.849Z,23.96
2017-09-25T11:00:00.832Z,23.98
2017-09-25T11:02:29.114Z,24.03
2017-09-25T11:04:57.305Z,24.05
2017-09-25T11:07:24.854Z,24.07
2017-09-25T11:09:52.340Z,24.07
2017-09-25T11:12:20.386Z,24.08
2017-09-25T11:14:50.822Z,24.10
2017-09-25T11:17:19.537Z,24.09
2017-09-25T11:19:47.919Z,24.09
2017-09-25T11:24:46.829Z,24.20
2017-09-25T11:43:02.464Z,24.17
2017-09-25T11:58:53.282Z,24.21
2017-09-25T12:03:56.369Z,24.25
2017-09-25T12:09:11.804Z,24.30
2017-09-25T12:11:46.809Z,24.29
2017-09-25T12:19:41.607Z,24.35
2017-09-25T12:22:12.016Z,24.35
2017-09-25T12:24:44.200Z,24.33
2017-09-25T12:27:15.077Z,24.35
2017-09-25T12:29:43.753Z,24.39
2017-09-25T12:32:13.989Z,24.37
2017-09-25T12:34:43.853Z,24.35
2017-09-25T12:42:26.024Z,24.41
2017-09-25T12:47:27.495Z,24.45
2017-09-25T12:57:40.124Z,24.47
2017-09-25T13:29:25.574Z,24.52
2017-09-25T13:37:02.891Z,24.55
2017-09-25T14:20:52.532Z,24.43
2017-09-25T14:23:22.593Z,24.44
2017-09-25T14:25:50.469Z,24.46
2017-09-25T14:28:17.904Z,24.47
2017-09-25T14:30:46.560Z,24.49
2017-09-25T14:33:14.838Z,24.50
2017-09-25T14:38:21.122Z,24.51
2017-09-25T14:45:59.080Z,24.50
2017-09-25T14:56:10.172Z,24.47
2017-09-25T15:03:43.410Z,24.46
2017-09-25T15:06:10.810Z,24.46
2017-09-25T15:11:11.215Z,24.46
2017-09-25T15:21:19.820Z,24.44
2017-09-25T15:23:47.141Z,24.42
2017-09-25T15:36:30.410Z,24.40
2017-09-25T15:41:30.976Z,24.38
2017-09-25T15:43:58.443Z,24.36
2017-09-25T15:54:05.297Z,24.32
2017-09-25T15:59:11.716Z,24.33
2017-09-25T16:11:51.732Z,24.28
2017-09-25T16:19:28.662Z,24.26
2017-09-25T16:24:32.401Z,24.23
2017-09-25T16:26:59.727Z,24.22
2017-09-25T16:31:58.738Z,24.20
2017-09-25T16:34:28.070Z,24.19
2017-09-25T16:36:55.614Z,24.20
2017-09-25T16:39:22.865Z,24.18
2017-09-25T16:41:50.094Z,24.16
2017-09-25T16:44:17.348Z,24.14
2017-09-25T16:46:44.631Z,24.13
2017-09-25T16:49:11.893Z,24.12
2017-09-25T16:51:39.119Z,24.12
2017-09-25T16:54:06.482Z,24.12
2017-09-25T16:56:33.844Z,24.09
2017-09-25T16:59:01.219Z,24.07
2017-09-25T17:01:34.617Z,24.06
2017-09-25T17:04:02.039Z,24.04
2017-09-25T17:06:29.370Z,24.04
2017-09-25T17:08:56.639Z,24.05
2017-09-25T17:11:23.785Z,24.05
2017-09-25T17:13:52.971Z,24.06
2017-09-25T17:16:20.256Z,24.05
2017-09-25T17:18:47.496Z,24.05
2017-09-25T17:21:14.715Z,24.06
2017-09-25T17:23:42.128Z,24.05
2017-09-25T17:26:09.317Z,24.06
2017-09-25T17:28:36.512Z,24.06
2017-09-25T17:31:03.792Z,24.06
2017-09-25T17:33:31.053Z,24.05
2017-09-25T17:35:58.369Z,24.02
2017-09-25T17:40:59.229Z,23.92
2017-09-25T17:46:05.263Z,23.80
2017-09-25T17:58:43.188Z,23.60
2017-09-25T18:01:10.436Z,23.57
2017-09-25T18:03:37.688Z,23.53
2017-09-25T18:06:05.014Z,23.49
2017-09-25T18:11:41.140Z,23.43
2017-09-25T18:14:16.301Z,23.39
2017-09-25T18:16:43.744Z,23.37
2017-09-25T18:21:42.173Z,23.32
2017-09-25T18:24:09.478Z,23.28
2017-09-25T18:26:36.738Z,23.26
2017-09-25T18:29:04.020Z,23.23
2017-09-25T18:31:31.329Z,23.21
2017-09-25T18:33:58.574Z,23.20
2017-09-25T18:36:25.772Z,23.17
2017-09-25T18:38:58.856Z,23.16
2017-09-25T18:41:30.087Z,23.14
2017-09-25T18:43:57.403Z,23.12
2017-09-25T18:46:24.707Z,23.10
2017-09-25T18:48:51.874Z,23.09
2017-09-25T18:51:19.098Z,23.07
2017-09-25T18:53:46.298Z,23.04
2017-09-25T18:56:13.507Z,23.03
2017-09-25T18:58:40.767Z,23.02
2017-09-25T19:01:08.059Z,23.01
2017-09-25T19:06:08.812Z,22.97
2017-09-25T19:08:40.531Z,22.94
2017-09-25T19:11:10.907Z,22.92
2017-09-25T19:16:13.044Z,22.88
2017-09-25T19:18:44.929Z,22.86
2017-09-25T19:21:12.341Z,22.84
2017-09-25T19:23:45.381Z,22.81
2017-09-25T19:26:12.747Z,22.79
2017-09-25T19:28:40.630Z,22.78
2017-09-25T19:31:07.860Z,22.76
2017-09-25T19:33:35.030Z,22.75
2017-09-25T19:36:02.235Z,22.75
2017-09-25T19:38:29.466Z,22.73
2017-09-25T19:40:56.720Z,22.71
2017-09-25T19:43:26.604Z,22.68
2017-09-25T19:45:53.832Z,22.66
2017-09-25T19:48:21.306Z,22.64
2017-09-25T19:50:48.533Z,22.63
2017-09-25T19:53:15.815Z,22.61
2017-09-25T19:55:42.983Z,22.59
2017-09-25T19:58:10.190Z,22.58
2017-09-25T20:00:37.408Z,22.56
2017-09-25T20:03:04.770Z,22.54
2017-09-25T20:05:32.037Z,22.53
2017-09-25T20:07:59.316Z,22.50
2017-09-25T20:10:28.413Z,22.50
2017-09-25T20:12:58.058Z,22.47
2017-09-25T20:15:32.795Z,22.47
2017-09-25T20:23:08.021Z,22.43
2017-09-25T20:28:07.843Z,22.38
2017-09-25T20:30:35.141Z,22.38
2017-09-25T20:33:02.374Z,22.36
2017-09-25T20:35:29.655Z,22.36
2017-09-25T20:37:56.902Z,22.34
2017-09-25T20:42:55.529Z,22.31
2017-09-25T20:45:22.844Z,22.29
2017-09-25T20:47:50.087Z,22.28
2017-09-25T20:50:23.669Z,22.27
2017-09-25T20:52:50.909Z,22.25
2017-09-25T20:55:18.114Z,22.25
2017-09-25T20:57:45.432Z,22.24
2017-09-25T21:00:12.717Z,22.22
2017-09-25T21:02:40.166Z,22.20
2017-09-25T21:05:12.540Z,22.20
2017-09-25T21:07:39.789Z,22.19
2017-09-25T21:10:07.005Z,22.18
2017-09-25T21:12:34.276Z,22.17
2017-09-25T21:22:41.563Z,22.13
2017-09-25T21:25:10.173Z,22.12
2017-09-25T21:30:11.219Z,22.10
2017-09-25T21:40:23.986Z,22.06
2017-09-25T21:42:52.119Z,22.06
2017-09-25T21:45:19.299Z,22.04
2017-09-25T21:47:46.532Z,22.03
2017-09-25T21:50:13.850Z,22.03
2017-09-25T21:52:41.108Z,22.01
2017-09-25T21:55:08.514Z,22.01
2017-09-25T21:57:35.755Z,22.00
2017-09-25T22:00:02.994Z,21.98
2017-09-25T22:02:33.478Z,21.98
2017-09-25T22:07:33.489Z,21.97
2017-09-25T22:12:34.773Z,21.93
2017-09-25T22:15:02.099Z,21.94
2017-09-25T22:17:29.327Z,21.93
2017-09-25T22:19:56.765Z,21.92
2017-09-25T22:22:23.986Z,21.91
2017-09-25T22:24:51.314Z,21.89
2017-09-25T22:27:18.566Z,21.90
2017-09-25T22:29:45.869Z,21.90
2017-09-25T22:32:13.334Z,21.89
2017-09-25T22:34:40.647Z,21.88
2017-09-25T22:37:10.571Z,21.87
2017-09-25T22:39:41.209Z,21.86
2017-09-25T22:44:41.427Z,21.85
2017-09-25T22:47:08.767Z,21.84
2017-09-25T22:49:36.048Z,21.84
2017-09-25T22:52:03.271Z,21.84
2017-09-25T22:54:36.911Z,21.83
2017-09-25T22:57:04.266Z,21.82
2017-09-25T22:59:31.514Z,21.81
2017-09-25T23:01:58.705Z,21.81
2017-09-25T23:04:25.937Z,21.79
2017-09-25T23:06:53.115Z,21.78
2017-09-25T23:09:20.418Z,21.78
2017-09-25T23:11:52.951Z,21.77
2017-09-25T23:14:20.186Z,21.77
2017-09-25T23:16:47.463Z,21.75
2017-09-25T23:19:14.649Z,21.76
2017-09-25T23:21:41.868Z,21.74
2017-09-25T23:24:09.124Z,21.73
2017-09-25T23:26:36.388Z,21.72
2017-09-25T23:29:11.345Z,21.71
2017-09-25T23:31:38.610Z,21.71
2017-09-25T23:34:05.858Z,21.69
2017-09-25T23:36:33.031Z,21.69
2017-09-25T23:39:00.261Z,21.69
2017-09-25T23:41:27.571Z,21.68
2017-09-25T23:43:54.934Z,21.67
2017-09-25T23:46:23.140Z,21.66
2017-09-25T23:48:53.753Z,21.65
2017-09-25T23:51:25.076Z,21.64
2017-09-25T23:53:52.599Z,21.64
2017-09-25T23:56:19.839Z,21.63
2017-09-25T23:58:48.805Z,21.62
